createdAt,value
2022-12-23T08:33:12.613Z,660.00
2022-12-23T08:34:12.580Z,676.00
2022-12-23T08:35:12.559Z,696.00
2022-12-23T08:36:16.115Z,712.00
2022-12-23T08:37:13.533Z,712.00
2022-12-23T08:38:12.546Z,676.00
2022-12-23T08:39:12.521Z,660.00
2022-12-23T08:40:12.509Z,660.00
2022-12-23T08:41:12.490Z,676.00
2022-12-23T08:42:12.487Z,680.00
2022-12-23T08:43:12.467Z,704.00
2022-12-23T08:44:12.484Z,684.00
2022-12-23T08:45:12.446Z,660.00
2022-12-23T08:46:12.489Z,624.00
2022-12-23T08:47:12.421Z,620.00
2022-12-23T08:48:12.411Z,640.00
2022-12-23T08:49:12.440Z,628.00
2022-12-23T08:50:12.400Z,604.00
2022-12-23T08:51:12.392Z,584.00
2022-12-23T08:52:12.364Z,592.00
2022-12-23T08:53:12.371Z,616.00
2022-12-23T08:54:12.372Z,636.00
2022-12-23T08:55:12.343Z,652.00
2022-12-23T08:56:12.335Z,644.00
2022-12-23T08:57:12.329Z,616.00
2022-12-23T08:58:12.304Z,572.00
2022-12-23T08:59:18.306Z,496.00
2022-12-23T09:00:13.288Z,456.00
2022-12-23T09:01:12.302Z,432.00
2022-12-23T09:02:12.459Z,432.00
2022-12-23T09:03:12.438Z,452.00
2022-12-23T09:04:12.254Z,488.00
2022-12-23T09:05:12.251Z,528.00
2022-12-23T09:06:12.207Z,524.00
2022-12-23T09:07:12.195Z,524.00
2022-12-23T09:08:12.181Z,516.00
2022-12-23T09:09:12.189Z,504.00
2022-12-23T09:10:12.181Z,492.00
2022-12-23T09:11:12.154Z,484.00
2022-12-23T09:12:12.135Z,484.00
2022-12-23T09:13:16.292Z,484.00
2022-12-23T09:14:13.150Z,492.00
2022-12-23T09:15:12.113Z,500.00
2022-12-23T09:16:12.143Z,508.00
2022-12-23T09:17:12.091Z,536.00
2022-12-23T09:18:12.078Z,556.00
2022-12-23T09:19:12.090Z,564.00
2022-12-23T09:20:12.052Z,532.00
2022-12-23T09:21:12.109Z,492.00
2022-12-23T09:22:12.038Z,440.00
2022-12-23T09:23:12.013Z,400.00
2022-12-23T09:24:12.012Z,364.00
2022-12-23T09:25:12.000Z,356.00
2022-12-23T09:26:11.982Z,388.00
2022-12-23T09:27:11.977Z,424.00
2022-12-23T09:28:11.973Z,432.00
2022-12-23T09:29:11.957Z,420.00
2022-12-23T09:30:11.931Z,404.00
2022-12-23T09:31:11.997Z,396.00
2022-12-23T09:32:11.910Z,416.00
2022-12-23T09:33:11.913Z,468.00
2022-12-23T09:34:11.912Z,528.00
2022-12-23T09:35:11.890Z,576.00
2022-12-23T09:36:11.864Z,588.00
2022-12-23T09:37:11.883Z,588.00
2022-12-23T09:38:11.856Z,616.00
2022-12-23T09:39:11.836Z,648.00
2022-12-23T09:40:11.834Z,624.00
2022-12-23T09:41:12.814Z,568.00
2022-12-23T09:42:11.812Z,524.00
2022-12-23T09:43:11.781Z,512.00
2022-12-23T09:44:11.797Z,520.00
2022-12-23T09:45:11.798Z,508.00
2022-12-23T09:46:11.823Z,476.00
2022-12-23T09:47:11.733Z,448.00
2022-12-23T09:48:11.743Z,440.00
2022-12-23T09:49:11.716Z,440.00
2022-12-23T09:50:11.730Z,456.00
2022-12-23T09:51:11.693Z,456.00
2022-12-23T09:52:11.679Z,464.00
2022-12-23T09:53:11.719Z,480.00
2022-12-23T09:54:16.686Z,472.00
2022-12-23T09:55:12.670Z,456.00
2022-12-23T09:56:11.647Z,456.00
2022-12-23T09:57:11.639Z,456.00
2022-12-23T09:58:11.616Z,460.00
2022-12-23T09:59:11.601Z,464.00
2022-12-23T10:00:11.620Z,484.00
2022-12-23T10:01:15.110Z,496.00
2022-12-23T10:02:11.775Z,508.00
2022-12-23T10:03:12.043Z,520.00
2022-12-23T10:04:11.638Z,528.00
2022-12-23T10:05:11.569Z,540.00
2022-12-23T10:06:11.536Z,552.00
2022-12-23T10:07:11.524Z,572.00
2022-12-23T10:08:11.520Z,576.00
2022-12-23T10:09:11.557Z,556.00
2022-12-23T10:10:11.505Z,536.00
2022-12-23T10:11:11.481Z,536.00
2022-12-23T10:12:11.487Z,556.00
2022-12-23T10:13:11.442Z,580.00
2022-12-23T10:14:11.434Z,592.00
2022-12-23T10:15:11.441Z,596.00
2022-12-23T10:16:11.490Z,628.00
2022-12-23T10:17:11.405Z,672.00
2022-12-23T10:18:11.390Z,704.00
2022-12-23T10:19:11.376Z,696.00
2022-12-23T10:20:11.380Z,696.00
2022-12-23T10:21:11.375Z,684.00
2022-12-23T10:22:11.376Z,668.00
2022-12-23T10:23:12.362Z,696.00
2022-12-23T10:24:11.333Z,728.00
2022-12-23T10:25:11.341Z,740.00
2022-12-23T10:26:11.334Z,796.00
2022-12-23T10:27:11.282Z,868.00
2022-12-23T10:28:11.273Z,900.00
2022-12-23T10:29:15.435Z,964.00
2022-12-23T10:30:41.989Z,984.00
2022-12-23T10:31:40.952Z,936.00
2022-12-23T10:32:12.339Z,900.00
2022-12-23T10:33:11.236Z,848.00
2022-12-23T10:34:11.217Z,884.00
2022-12-23T10:35:11.209Z,920.00
2022-12-23T10:36:11.299Z,912.00
2022-12-23T10:37:11.312Z,880.00
2022-12-23T10:38:11.166Z,856.00
2022-12-23T10:39:11.182Z,880.00
2022-12-23T10:40:11.153Z,928.00
2022-12-23T10:41:11.245Z,964.00
2022-12-23T10:42:11.150Z,976.00
2022-12-23T10:43:11.097Z,936.00
2022-12-23T10:44:11.099Z,888.00
2022-12-23T10:45:11.089Z,856.00
2022-12-23T10:46:11.136Z,836.00
2022-12-23T10:47:11.235Z,840.00
2022-12-23T10:48:14.195Z,880.00
2022-12-23T10:49:11.052Z,940.00
2022-12-23T10:50:11.052Z,1012.00
2022-12-23T10:51:11.007Z,1056.00
2022-12-23T10:52:11.036Z,1064.00
2022-12-23T10:53:10.998Z,1068.00
2022-12-23T10:54:10.979Z,1076.00
2022-12-23T10:55:10.976Z,1100.00
2022-12-23T10:56:10.968Z,1172.00
2022-12-23T10:57:10.976Z,1212.00
2022-12-23T10:58:10.974Z,1204.00
2022-12-23T10:59:10.934Z,1148.00
2022-12-23T11:00:10.941Z,1056.00
2022-12-23T11:01:16.404Z,972.00
2022-12-23T11:02:12.164Z,920.00
2022-12-23T11:03:11.090Z,892.00
2022-12-23T11:04:11.876Z,848.00
2022-12-23T11:05:10.873Z,768.00
2022-12-23T11:06:10.857Z,692.00
2022-12-23T11:07:42.686Z,632.00
2022-12-23T11:08:11.830Z,604.00
2022-12-23T11:09:10.804Z,584.00
2022-12-23T11:10:10.813Z,596.00
2022-12-23T11:11:10.781Z,656.00
2022-12-23T11:12:10.792Z,832.00
2022-12-23T11:13:10.796Z,1140.00
2022-12-23T11:14:10.779Z,1388.00
2022-12-23T11:15:10.759Z,1508.00
2022-12-23T11:16:10.810Z,1548.00
2022-12-23T11:17:10.735Z,1568.00
2022-12-23T11:18:10.751Z,1628.00
2022-12-23T11:19:10.721Z,1604.00
2022-12-23T11:20:10.707Z,1440.00
2022-12-23T11:21:10.687Z,1284.00
2022-12-23T11:22:10.672Z,1148.00
2022-12-23T11:23:10.648Z,1028.00
2022-12-23T11:24:10.676Z,924.00
2022-12-23T11:25:10.635Z,828.00
2022-12-23T11:26:10.632Z,724.00
2022-12-23T11:27:10.601Z,656.00
2022-12-23T11:28:10.677Z,604.00
2022-12-23T11:29:10.602Z,548.00
2022-12-23T11:30:10.604Z,496.00
2022-12-23T11:31:10.677Z,456.00
2022-12-23T11:32:10.626Z,432.00
2022-12-23T11:33:10.547Z,424.00
2022-12-23T11:34:10.526Z,428.00
2022-12-23T11:35:10.576Z,440.00
2022-12-23T11:36:10.522Z,468.00
2022-12-23T11:37:10.995Z,524.00
2022-12-23T11:38:10.519Z,584.00
2022-12-23T11:39:10.495Z,612.00
2022-12-23T11:40:10.496Z,596.00
2022-12-23T11:41:10.456Z,556.00
2022-12-23T11:42:10.472Z,504.00
2022-12-23T11:43:10.452Z,456.00
2022-12-23T11:44:10.438Z,412.00
2022-12-23T11:45:10.432Z,392.00
2022-12-23T11:46:10.453Z,388.00
2022-12-23T11:47:10.425Z,392.00
2022-12-23T11:48:11.366Z,396.00
2022-12-23T11:49:10.356Z,404.00
2022-12-23T11:50:10.382Z,416.00
2022-12-23T11:51:10.326Z,448.00
2022-12-23T11:52:10.343Z,500.00
2022-12-23T11:53:10.332Z,564.00
2022-12-23T11:54:10.313Z,624.00
2022-12-23T11:55:10.309Z,700.00
2022-12-23T11:56:10.362Z,808.00
2022-12-23T11:57:10.391Z,912.00
2022-12-23T11:58:10.265Z,996.00
2022-12-23T11:59:10.246Z,1024.00
2022-12-23T12:00:10.258Z,1064.00
2022-12-23T12:01:11.236Z,1068.00
2022-12-23T12:02:10.234Z,1052.00
2022-12-23T12:03:10.241Z,1020.00
2022-12-23T12:04:10.269Z,976.00
2022-12-23T12:05:10.200Z,964.00
2022-12-23T12:06:10.171Z,996.00
2022-12-23T12:07:10.163Z,1044.00
2022-12-23T12:08:10.157Z,1076.00
2022-12-23T12:09:10.135Z,1048.00
2022-12-23T12:10:10.134Z,984.00
2022-12-23T12:11:10.114Z,896.00
2022-12-23T12:12:10.099Z,820.00
2022-12-23T12:13:10.163Z,752.00
2022-12-23T12:14:10.068Z,696.00
2022-12-23T12:15:10.065Z,640.00
2022-12-23T12:16:10.132Z,600.00
2022-12-23T12:17:10.139Z,584.00
2022-12-23T12:18:10.028Z,580.00
2022-12-23T12:19:10.008Z,572.00
2022-12-23T12:20:10.039Z,536.00
2022-12-23T12:21:10.029Z,460.00
2022-12-23T12:22:09.998Z,376.00
2022-12-23T12:23:19.209Z,304.00
2022-12-23T12:24:19.247Z,272.00
2022-12-23T12:25:10.938Z,252.00
2022-12-23T12:26:09.952Z,228.00
2022-12-23T12:27:09.936Z,224.00
2022-12-23T12:28:09.947Z,228.00
2022-12-23T12:29:09.906Z,232.00
2022-12-23T12:30:09.899Z,248.00
2022-12-23T12:31:10.005Z,276.00
2022-12-23T12:32:09.877Z,300.00
2022-12-23T12:33:09.865Z,320.00
2022-12-23T12:34:09.836Z,348.00
2022-12-23T12:35:09.824Z,388.00
2022-12-23T12:36:09.898Z,372.00
2022-12-23T12:37:09.827Z,348.00
2022-12-23T12:38:09.796Z,356.00
2022-12-23T12:39:09.817Z,392.00
2022-12-23T12:40:09.886Z,444.00
2022-12-23T12:41:09.773Z,480.00
2022-12-23T12:42:10.806Z,504.00
2022-12-23T12:43:09.748Z,524.00
2022-12-23T12:44:09.742Z,536.00
2022-12-23T12:45:09.736Z,568.00
2022-12-23T12:46:09.767Z,608.00
2022-12-23T12:47:28.558Z,652.00
2022-12-23T12:48:18.169Z,684.00
2022-12-23T12:49:10.690Z,748.00
2022-12-23T12:50:09.727Z,816.00
2022-12-23T12:51:09.652Z,1000.00
2022-12-23T12:52:09.634Z,1100.00
2022-12-23T12:53:09.726Z,1092.00
2022-12-23T12:54:09.624Z,996.00
2022-12-23T12:55:09.609Z,972.00
2022-12-23T12:56:09.590Z,1092.00
2022-12-23T12:57:09.576Z,1164.00
2022-12-23T12:58:09.582Z,1152.00
2022-12-23T12:59:09.563Z,1176.00
2022-12-23T13:00:09.544Z,1204.00
2022-12-23T13:01:09.572Z,1152.00
2022-12-23T13:02:09.627Z,1084.00
2022-12-23T13:03:09.534Z,988.00
2022-12-23T13:04:10.511Z,904.00
2022-12-23T13:05:09.525Z,880.00
2022-12-23T13:06:09.492Z,760.00
2022-12-23T13:07:09.472Z,600.00
2022-12-23T13:08:09.466Z,500.00
2022-12-23T13:09:10.452Z,436.00
2022-12-23T13:10:09.428Z,392.00
2022-12-23T13:11:09.425Z,360.00
2022-12-23T13:12:09.426Z,300.00
2022-12-23T13:13:09.392Z,264.00
2022-12-23T13:14:09.408Z,252.00
2022-12-23T13:15:09.381Z,272.00
2022-12-23T13:16:09.358Z,260.00
2022-12-23T13:17:09.403Z,316.00
2022-12-23T13:18:09.357Z,388.00
2022-12-23T13:19:24.638Z,404.00
2022-12-23T13:20:09.327Z,428.00
2022-12-23T13:21:09.339Z,424.00
2022-12-23T13:22:09.292Z,400.00
2022-12-23T13:23:34.278Z,376.00
2022-12-23T13:24:10.289Z,352.00
2022-12-23T13:25:09.274Z,348.00
2022-12-23T13:26:09.257Z,360.00
2022-12-23T13:27:09.228Z,400.00
2022-12-23T13:28:09.224Z,388.00
2022-12-23T13:29:09.228Z,384.00
2022-12-23T13:30:09.243Z,484.00
2022-12-23T13:31:09.255Z,604.00
2022-12-23T13:32:09.187Z,568.00
2022-12-23T13:33:09.183Z,680.00
2022-12-23T13:34:09.158Z,756.00
2022-12-23T13:35:09.180Z,664.00
2022-12-23T13:36:09.203Z,748.00
2022-12-23T13:37:09.151Z,792.00
2022-12-23T13:38:09.116Z,904.00
2022-12-23T13:39:09.099Z,924.00
2022-12-23T13:40:09.104Z,884.00
2022-12-23T13:41:09.099Z,892.00
2022-12-23T13:42:09.072Z,736.00
2022-12-23T13:43:09.057Z,620.00
2022-12-23T13:44:09.035Z,520.00
2022-12-23T13:45:09.046Z,460.00
2022-12-23T13:46:09.082Z,384.00
2022-12-23T13:47:09.014Z,392.00
2022-12-23T13:48:09.007Z,372.00
2022-12-23T13:49:08.983Z,368.00
2022-12-23T13:50:08.982Z,296.00
2022-12-23T13:51:09.004Z,292.00
2022-12-23T13:52:08.953Z,264.00
2022-12-23T13:53:09.053Z,236.00
2022-12-23T13:54:08.919Z,200.00
2022-12-23T13:55:08.921Z,172.00
2022-12-23T13:56:08.928Z,116.00
2022-12-23T13:57:08.891Z,112.00
2022-12-23T13:58:08.888Z,140.00
2022-12-23T13:59:08.869Z,168.00
2022-12-23T14:00:08.865Z,204.00
2022-12-23T14:01:08.932Z,252.00
2022-12-23T14:02:09.045Z,336.00
2022-12-23T14:03:08.871Z,420.00
2022-12-23T14:04:08.821Z,524.00
2022-12-23T14:05:14.696Z,504.00
2022-12-23T14:06:09.800Z,440.00
2022-12-23T14:07:08.803Z,380.00
2022-12-23T14:08:08.794Z,332.00
2022-12-23T14:09:08.795Z,264.00
2022-12-23T14:10:08.740Z,188.00
2022-12-23T14:11:08.732Z,212.00
2022-12-23T14:12:08.746Z,188.00
2022-12-23T14:13:08.744Z,148.00
2022-12-23T14:14:08.693Z,116.00
2022-12-23T14:15:08.710Z,104.00
2022-12-23T14:16:08.764Z,116.00
2022-12-23T14:17:08.712Z,136.00
2022-12-23T14:18:08.753Z,152.00
2022-12-23T14:19:08.657Z,156.00
2022-12-23T14:20:08.649Z,176.00
2022-12-23T14:21:08.636Z,160.00
2022-12-23T14:22:08.637Z,164.00
2022-12-23T14:23:08.595Z,148.00
2022-12-23T14:24:08.592Z,152.00
2022-12-23T14:25:08.598Z,140.00
2022-12-23T14:26:08.586Z,144.00
2022-12-23T14:27:08.551Z,156.00
2022-12-23T14:28:08.594Z,200.00
2022-12-23T14:29:08.547Z,252.00
2022-12-23T14:30:08.586Z,376.00
2022-12-23T14:31:08.634Z,324.00
2022-12-23T14:32:08.513Z,400.00
2022-12-23T14:33:08.513Z,356.00
2022-12-23T14:34:08.500Z,276.00
2022-12-23T14:35:08.520Z,264.00
2022-12-23T14:36:08.471Z,252.00
2022-12-23T14:37:08.440Z,220.00
2022-12-23T14:38:08.447Z,156.00
2022-12-23T14:39:08.468Z,100.00
2022-12-23T14:40:08.412Z,72.00
2022-12-23T14:41:08.434Z,72.00
2022-12-23T14:42:13.321Z,60.00
2022-12-23T14:43:09.406Z,52.00
2022-12-23T14:44:08.377Z,48.00
2022-12-23T14:45:08.342Z,36.00
2022-12-23T14:46:08.399Z,44.00
2022-12-23T14:47:08.346Z,52.00
2022-12-23T14:48:08.307Z,68.00
2022-12-23T14:49:37.589Z,84.00
2022-12-23T14:50:09.307Z,100.00
2022-12-23T14:51:08.317Z,128.00
2022-12-23T14:52:08.270Z,164.00
2022-12-23T14:53:08.256Z,152.00
2022-12-23T14:54:08.266Z,144.00
2022-12-23T14:55:29.616Z,100.00
2022-12-23T14:56:09.231Z,92.00
2022-12-23T14:57:08.244Z,96.00
2022-12-23T14:58:08.232Z,92.00
2022-12-23T14:59:08.224Z,64.00
2022-12-23T15:00:08.193Z,68.00
2022-12-23T15:01:08.186Z,92.00
2022-12-23T15:02:08.278Z,72.00
2022-12-23T15:03:08.274Z,84.00
2022-12-23T15:04:08.140Z,64.00
2022-12-23T15:05:08.143Z,72.00
2022-12-23T15:06:08.125Z,88.00
2022-12-23T15:07:08.093Z,100.00
2022-12-23T15:08:08.093Z,104.00
2022-12-23T15:09:08.077Z,100.00
2022-12-23T15:10:08.098Z,100.00
2022-12-23T15:11:08.051Z,88.00
2022-12-23T15:12:08.060Z,108.00
2022-12-23T15:13:08.682Z,120.00
2022-12-23T15:14:08.058Z,100.00
2022-12-23T15:15:08.018Z,88.00
2022-12-23T15:16:08.106Z,88.00
2022-12-23T15:17:07.992Z,92.00
2022-12-23T15:18:07.968Z,84.00
2022-12-23T15:19:07.956Z,104.00
2022-12-23T15:20:07.947Z,104.00
2022-12-23T15:21:07.959Z,104.00
2022-12-23T15:22:20.768Z,100.00
2022-12-23T15:23:08.909Z,88.00
2022-12-23T15:24:07.896Z,76.00
2022-12-23T15:25:07.888Z,56.00
2022-12-23T15:26:07.911Z,36.00
2022-12-23T15:27:26.619Z,28.00
2022-12-23T15:28:08.850Z,24.00
